sensor_id;sensor_type;location;lat;lon;timestamp;P1;durP1;ratioP1;P2;durP2;ratioP2
966;SDS011;56108;48.730;9.304;2022-10-13T00:00:02;34.17;;;26.90;;
966;SDS011;56108;48.730;9.304;2022-10-13T00:02:15;38.83;;;25.80;;
966;SDS011;56108;48.730;9.304;2022-10-13T00:04:27;37.30;;;27.23;;
966;SDS011;56108;48.730;9.304;2022-10-13T00:06:35;40.03;;;26.75;;
966;SDS011;56108;48.730;9.304;2022-10-13T00:08:44;32.30;;;25.42;;
966;SDS011;56108;48.730;9.304;2022-10-13T00:10:53;33.95;;;24.27;;
966;SDS011;56108;48.730;9.304;2022-10-13T00:13:05;33.60;;;26.60;;
966;SDS011;56108;48.730;9.304;2022-10-13T00:15:14;39.28;;;25.90;;
966;SDS011;56108;48.730;9.304;2022-10-13T00:17:22;32.65;;;25.50;;
966;SDS011;56108;48.730;9.304;2022-10-13T00:19:34;27.65;;;23.48;;
966;SDS011;56108;48.730;9.304;2022-10-13T00:21:44;31.13;;;24.27;;
966;SDS011;56108;48.730;9.304;2022-10-13T00:23:53;29.27;;;23.50;;
966;SDS011;56108;48.730;9.304;2022-10-13T00:26:02;28.15;;;22.13;;
966;SDS011;56108;48.730;9.304;2022-10-13T00:28:13;29.15;;;23.60;;
966;SDS011;56108;48.730;9.304;2022-10-13T00:30:22;28.20;;;21.23;;
966;SDS011;56108;48.730;9.304;2022-10-13T00:32:30;28.10;;;21.77;;
966;SDS011;56108;48.730;9.304;2022-10-13T00:34:45;30.45;;;22.88;;
966;SDS011;56108;48.730;9.304;2022-10-13T00:36:54;30.08;;;22.30;;
966;SDS011;56108;48.730;9.304;2022-10-13T00:39:03;29.42;;;22.65;;
966;SDS011;56108;48.730;9.304;2022-10-13T00:41:11;27.25;;;20.67;;
966;SDS011;56108;48.730;9.304;2022-10-13T00:43:21;27.20;;;22.15;;
966;SDS011;56108;48.730;9.304;2022-10-13T00:45:31;32.85;;;23.25;;
966;SDS011;56108;48.730;9.304;2022-10-13T00:47:41;30.52;;;22.58;;
966;SDS011;56108;48.730;9.304;2022-10-13T00:49:55;27.13;;;22.83;;
966;SDS011;56108;48.730;9.304;2022-10-13T00:52:04;27.25;;;21.23;;
966;SDS011;56108;48.730;9.304;2022-10-13T00:54:13;26.08;;;20.83;;
966;SDS011;56108;48.730;9.304;2022-10-13T00:56:24;34.83;;;23.17;;
966;SDS011;56108;48.730;9.304;2022-10-13T00:58:34;28.52;;;23.85;;
966;SDS011;56108;48.730;9.304;2022-10-13T01:00:45;31.88;;;22.27;;
966;SDS011;56108;48.730;9.304;2022-10-13T01:02:56;30.48;;;23.35;;
966;SDS011;56108;48.730;9.304;2022-10-13T01:05:08;25.08;;;20.35;;
966;SDS011;56108;48.730;9.304;2022-10-13T01:07:16;29.48;;;22.95;;
966;SDS011;56108;48.730;9.304;2022-10-13T01:09:26;29.77;;;22.30;;
966;SDS011;56108;48.730;9.304;2022-10-13T01:11:44;31.55;;;21.77;;
966;SDS011;56108;48.730;9.304;2022-10-13T01:14:06;31.50;;;23.35;;
966;SDS011;56108;48.730;9.304;2022-10-13T01:16:21;33.33;;;24.02;;
966;SDS011;56108;48.730;9.304;2022-10-13T01:18:41;32.13;;;24.27;;
966;SDS011;56108;48.730;9.304;2022-10-13T01:26:16;28.23;;;21.75;;
966;SDS011;56108;48.730;9.304;2022-10-13T01:28:50;32.83;;;23.02;;
966;SDS011;56108;48.730;9.304;2022-10-13T01:31:26;36.28;;;24.30;;
966;SDS011;56108;48.730;9.304;2022-10-13T01:33:41;30.45;;;23.85;;
966;SDS011;56108;48.730;9.304;2022-10-13T01:36:00;34.42;;;24.50;;
966;SDS011;56108;48.730;9.304;2022-10-13T01:38:22;32.92;;;23.60;;
966;SDS011;56108;48.730;9.304;2022-10-13T01:40:37;33.13;;;24.52;;
966;SDS011;56108;48.730;9.304;2022-10-13T01:42:52;31.92;;;24.40;;
966;SDS011;56108;48.730;9.304;2022-10-13T01:45:05;30.73;;;24.25;;
966;SDS011;56108;48.730;9.304;2022-10-13T01:47:20;34.53;;;23.95;;
966;SDS011;56108;48.730;9.304;2022-10-13T01:49:31;35.92;;;25.75;;
966;SDS011;56108;48.730;9.304;2022-10-13T01:51:41;34.65;;;26.65;;
966;SDS011;56108;48.730;9.304;2022-10-13T01:53:54;37.67;;;26.08;;
966;SDS011;56108;48.730;9.304;2022-10-13T01:56:02;36.67;;;24.63;;
966;SDS011;56108;48.730;9.304;2022-10-13T01:58:11;33.28;;;24.80;;
966;SDS011;56108;48.730;9.304;2022-10-13T02:00:20;33.40;;;26.52;;
966;SDS011;56108;48.730;9.304;2022-10-13T02:02:33;34.20;;;25.73;;
966;SDS011;56108;48.730;9.304;2022-10-13T02:04:47;32.00;;;25.52;;
966;SDS011;56108;48.730;9.304;2022-10-13T02:07:04;32.53;;;23.45;;
966;SDS011;56108;48.730;9.304;2022-10-13T02:09:20;32.45;;;24.15;;
966;SDS011;56108;48.730;9.304;2022-10-13T02:11:34;33.13;;;24.85;;
966;SDS011;56108;48.730;9.304;2022-10-13T02:13:43;35.90;;;23.75;;
966;SDS011;56108;48.730;9.304;2022-10-13T02:15:58;34.97;;;23.55;;
966;SDS011;56108;48.730;9.304;2022-10-13T02:18:11;28.38;;;23.83;;
966;SDS011;56108;48.730;9.304;2022-10-13T02:20:21;34.90;;;24.77;;
966;SDS011;56108;48.730;9.304;2022-10-13T02:22:33;34.45;;;25.77;;
966;SDS011;56108;48.730;9.304;2022-10-13T02:24:45;32.28;;;22.70;;
966;SDS011;56108;48.730;9.304;2022-10-13T02:26:54;29.75;;;23.27;;
966;SDS011;56108;48.730;9.304;2022-10-13T02:29:07;34.28;;;23.55;;
966;SDS011;56108;48.730;9.304;2022-10-13T02:31:16;29.42;;;22.80;;
966;SDS011;56108;48.730;9.304;2022-10-13T02:33:27;29.42;;;23.13;;
966;SDS011;56108;48.730;9.304;2022-10-13T02:35:36;28.27;;;22.50;;
966;SDS011;56108;48.730;9.304;2022-10-13T02:37:45;25.23;;;21.20;;
966;SDS011;56108;48.730;9.304;2022-10-13T02:39:53;25.70;;;20.40;;
966;SDS011;56108;48.730;9.304;2022-10-13T02:42:01;26.50;;;22.13;;
966;SDS011;56108;48.730;9.304;2022-10-13T02:44:09;28.05;;;21.67;;
966;SDS011;56108;48.730;9.304;2022-10-13T02:46:17;29.00;;;22.95;;
966;SDS011;56108;48.730;9.304;2022-10-13T02:48:29;29.00;;;22.33;;
966;SDS011;56108;48.730;9.304;2022-10-13T02:50:37;29.95;;;22.52;;
966;SDS011;56108;48.730;9.304;2022-10-13T02:52:45;30.45;;;22.27;;
966;SDS011;56108;48.730;9.304;2022-10-13T02:54:53;28.40;;;22.40;;
966;SDS011;56108;48.730;9.304;2022-10-13T02:57:03;27.30;;;21.13;;
966;SDS011;56108;48.730;9.304;2022-10-13T02:59:11;28.58;;;21.92;;
966;SDS011;56108;48.730;9.304;2022-10-13T03:01:20;27.67;;;20.70;;
966;SDS011;56108;48.730;9.304;2022-10-13T03:03:31;27.48;;;21.50;;
966;SDS011;56108;48.730;9.304;2022-10-13T03:05:39;22.65;;;20.25;;
966;SDS011;56108;48.730;9.304;2022-10-13T03:07:47;25.05;;;20.40;;
966;SDS011;56108;48.730;9.304;2022-10-13T03:09:56;30.75;;;20.73;;
966;SDS011;56108;48.730;9.304;2022-10-13T03:12:05;27.42;;;22.60;;
966;SDS011;56108;48.730;9.304;2022-10-13T03:14:13;26.35;;;22.45;;
966;SDS011;56108;48.730;9.304;2022-10-13T03:16:22;29.20;;;23.60;;
966;SDS011;56108;48.730;9.304;2022-10-13T03:18:34;28.55;;;22.73;;
966;SDS011;56108;48.730;9.304;2022-10-13T03:20:42;26.02;;;21.20;;
966;SDS011;56108;48.730;9.304;2022-10-13T03:22:50;30.65;;;21.88;;
966;SDS011;56108;48.730;9.304;2022-10-13T03:24:59;32.75;;;22.60;;
966;SDS011;56108;48.730;9.304;2022-10-13T03:27:09;29.73;;;22.35;;
966;SDS011;56108;48.730;9.304;2022-10-13T03:29:17;28.95;;;22.17;;
966;SDS011;56108;48.730;9.304;2022-10-13T03:31:26;24.08;;;21.42;;
966;SDS011;56108;48.730;9.304;2022-10-13T03:33:47;29.52;;;22.67;;
966;SDS011;56108;48.730;9.304;2022-10-13T03:35:57;28.20;;;21.65;;
966;SDS011;56108;48.730;9.304;2022-10-13T03:38:06;24.63;;;21.40;;
966;SDS011;56108;48.730;9.304;2022-10-13T03:40:16;27.15;;;22.20;;
966;SDS011;56108;48.730;9.304;2022-10-13T03:42:25;25.80;;;21.20;;
966;SDS011;56108;48.730;9.304;2022-10-13T03:44:33;26.17;;;21.48;;
966;SDS011;56108;48.730;9.304;2022-10-13T03:46:41;30.65;;;21.50;;
966;SDS011;56108;48.730;9.304;2022-10-13T03:48:53;23.23;;;20.75;;
966;SDS011;56108;48.730;9.304;2022-10-13T03:51:03;22.92;;;20.15;;
966;SDS011;56108;48.730;9.304;2022-10-13T03:53:12;25.88;;;22.00;;
966;SDS011;56108;48.730;9.304;2022-10-13T03:55:22;26.30;;;20.77;;
966;SDS011;56108;48.730;9.304;2022-10-13T03:57:30;30.00;;;21.38;;
966;SDS011;56108;48.730;9.304;2022-10-13T03:59:38;30.75;;;22.95;;
966;SDS011;56108;48.730;9.304;2022-10-13T04:01:47;30.15;;;23.30;;
966;SDS011;56108;48.730;9.304;2022-10-13T04:03:58;27.80;;;22.40;;
966;SDS011;56108;48.730;9.304;2022-10-13T04:06:09;32.22;;;21.95;;
966;SDS011;56108;48.730;9.304;2022-10-13T04:08:25;29.75;;;22.38;;
966;SDS011;56108;48.730;9.304;2022-10-13T04:10:35;27.83;;;21.30;;
966;SDS011;56108;48.730;9.304;2022-10-13T04:12:43;28.50;;;22.17;;
966;SDS011;56108;48.730;9.304;2022-10-13T04:14:52;25.25;;;21.67;;
966;SDS011;56108;48.730;9.304;2022-10-13T04:17:00;26.95;;;21.38;;
966;SDS011;56108;48.730;9.304;2022-10-13T04:19:12;29.50;;;22.58;;
966;SDS011;56108;48.730;9.304;2022-10-13T04:21:21;27.55;;;20.70;;
966;SDS011;56108;48.730;9.304;2022-10-13T04:23:30;29.88;;;22.10;;
966;SDS011;56108;48.730;9.304;2022-10-13T04:25:39;31.00;;;21.73;;
966;SDS011;56108;48.730;9.304;2022-10-13T04:27:47;28.25;;;20.58;;
966;SDS011;56108;48.730;9.304;2022-10-13T04:29:57;30.10;;;20.48;;
966;SDS011;56108;48.730;9.304;2022-10-13T04:32:06;26.23;;;19.70;;
966;SDS011;56108;48.730;9.304;2022-10-13T04:34:18;24.33;;;19.55;;
966;SDS011;56108;48.730;9.304;2022-10-13T04:36:28;25.55;;;20.70;;
966;SDS011;56108;48.730;9.304;2022-10-13T04:38:39;28.90;;;20.58;;
966;SDS011;56108;48.730;9.304;2022-10-13T04:40:51;25.85;;;19.88;;
966;SDS011;56108;48.730;9.304;2022-10-13T04:43:02;26.27;;;21.27;;
966;SDS011;56108;48.730;9.304;2022-10-13T04:45:13;24.55;;;20.20;;
966;SDS011;56108;48.730;9.304;2022-10-13T04:47:26;25.55;;;20.67;;
966;SDS011;56108;48.730;9.304;2022-10-13T04:49:42;23.70;;;19.30;;
966;SDS011;56108;48.730;9.304;2022-10-13T04:51:51;27.27;;;20.95;;
966;SDS011;56108;48.730;9.304;2022-10-13T04:54:00;31.00;;;22.00;;
966;SDS011;56108;48.730;9.304;2022-10-13T04:56:12;25.15;;;20.40;;
966;SDS011;56108;48.730;9.304;2022-10-13T04:58:22;24.48;;;20.70;;
966;SDS011;56108;48.730;9.304;2022-10-13T05:00:31;30.10;;;22.38;;
966;SDS011;56108;48.730;9.304;2022-10-13T05:02:40;28.65;;;22.38;;
966;SDS011;56108;48.730;9.304;2022-10-13T05:04:52;29.92;;;21.75;;
966;SDS011;56108;48.730;9.304;2022-10-13T05:07:00;30.52;;;23.55;;
966;SDS011;56108;48.730;9.304;2022-10-13T05:09:21;32.55;;;24.05;;
966;SDS011;56108;48.730;9.304;2022-10-13T05:11:30;27.17;;;22.95;;
966;SDS011;56108;48.730;9.304;2022-10-13T05:13:42;30.17;;;23.63;;
966;SDS011;56108;48.730;9.304;2022-10-13T05:15:50;31.73;;;22.45;;
966;SDS011;56108;48.730;9.304;2022-10-13T05:17:59;29.42;;;23.58;;
966;SDS011;56108;48.730;9.304;2022-10-13T05:20:11;29.75;;;22.10;;
966;SDS011;56108;48.730;9.304;2022-10-13T05:22:21;27.00;;;21.98;;
966;SDS011;56108;48.730;9.304;2022-10-13T05:24:31;28.75;;;22.60;;
966;SDS011;56108;48.730;9.304;2022-10-13T05:26:44;29.42;;;21.95;;
966;SDS011;56108;48.730;9.304;2022-10-13T05:28:54;28.60;;;22.05;;
966;SDS011;56108;48.730;9.304;2022-10-13T05:31:09;27.65;;;21.80;;
966;SDS011;56108;48.730;9.304;2022-10-13T05:33:19;30.50;;;22.25;;
966;SDS011;56108;48.730;9.304;2022-10-13T05:35:30;30.40;;;23.10;;
966;SDS011;56108;48.730;9.304;2022-10-13T05:37:39;29.27;;;23.30;;
966;SDS011;56108;48.730;9.304;2022-10-13T05:39:48;28.05;;;22.60;;
966;SDS011;56108;48.730;9.304;2022-10-13T05:41:58;28.30;;;22.02;;
966;SDS011;56108;48.730;9.304;2022-10-13T05:44:07;24.08;;;19.90;;
966;SDS011;56108;48.730;9.304;2022-10-13T05:46:30;40.85;;;20.50;;
966;SDS011;56108;48.730;9.304;2022-10-13T05:48:38;33.63;;;22.02;;
966;SDS011;56108;48.730;9.304;2022-10-13T05:50:50;27.38;;;21.90;;
966;SDS011;56108;48.730;9.304;2022-10-13T05:52:58;25.40;;;20.85;;
966;SDS011;56108;48.730;9.304;2022-10-13T05:55:07;30.05;;;21.65;;
966;SDS011;56108;48.730;9.304;2022-10-13T05:57:19;30.55;;;21.88;;
966;SDS011;56108;48.730;9.304;2022-10-13T05:59:31;27.20;;;21.52;;
966;SDS011;56108;48.730;9.304;2022-10-13T06:01:46;28.10;;;21.45;;
966;SDS011;56108;48.730;9.304;2022-10-13T06:03:57;25.90;;;21.52;;
966;SDS011;56108;48.730;9.304;2022-10-13T06:06:10;28.98;;;21.20;;
966;SDS011;56108;48.730;9.304;2022-10-13T06:08:19;29.85;;;21.27;;
966;SDS011;56108;48.730;9.304;2022-10-13T06:10:29;28.33;;;20.35;;
966;SDS011;56108;48.730;9.304;2022-10-13T06:12:38;32.35;;;21.58;;
966;SDS011;56108;48.730;9.304;2022-10-13T06:14:46;31.45;;;22.60;;
966;SDS011;56108;48.730;9.304;2022-10-13T06:16:54;28.40;;;22.52;;
966;SDS011;56108;48.730;9.304;2022-10-13T06:19:03;28.83;;;22.65;;
966;SDS011;56108;48.730;9.304;2022-10-13T06:21:15;33.42;;;22.83;;
966;SDS011;56108;48.730;9.304;2022-10-13T06:23:25;35.63;;;25.00;;
966;SDS011;56108;48.730;9.304;2022-10-13T06:25:34;26.02;;;22.30;;
966;SDS011;56108;48.730;9.304;2022-10-13T06:27:43;30.73;;;22.50;;
966;SDS011;56108;48.730;9.304;2022-10-13T06:29:51;28.05;;;22.38;;
966;SDS011;56108;48.730;9.304;2022-10-13T06:31:59;28.17;;;21.85;;
966;SDS011;56108;48.730;9.304;2022-10-13T06:34:08;27.35;;;21.80;;
966;SDS011;56108;48.730;9.304;2022-10-13T06:36:23;30.13;;;23.63;;
966;SDS011;56108;48.730;9.304;2022-10-13T06:38:36;31.08;;;22.55;;
966;SDS011;56108;48.730;9.304;2022-10-13T06:40:46;29.05;;;22.63;;
966;SDS011;56108;48.730;9.304;2022-10-13T06:42:57;29.20;;;22.67;;
966;SDS011;56108;48.730;9.304;2022-10-13T06:45:06;27.60;;;24.02;;
966;SDS011;56108;48.730;9.304;2022-10-13T06:47:16;28.80;;;21.40;;
966;SDS011;56108;48.730;9.304;2022-10-13T06:49:25;29.83;;;22.15;;
966;SDS011;56108;48.730;9.304;2022-10-13T06:51:35;22.70;;;19.85;;
966;SDS011;56108;48.730;9.304;2022-10-13T06:53:44;27.08;;;23.02;;
966;SDS011;56108;48.730;9.304;2022-10-13T06:55:58;29.63;;;23.08;;
966;SDS011;56108;48.730;9.304;2022-10-13T06:58:07;26.92;;;22.65;;
966;SDS011;56108;48.730;9.304;2022-10-13T07:00:16;35.15;;;22.73;;
966;SDS011;56108;48.730;9.304;2022-10-13T07:02:25;27.75;;;21.88;;
966;SDS011;56108;48.730;9.304;2022-10-13T07:04:34;26.20;;;22.45;;
966;SDS011;56108;48.730;9.304;2022-10-13T07:06:45;27.77;;;21.08;;
966;SDS011;56108;48.730;9.304;2022-10-13T07:08:54;25.80;;;21.52;;
966;SDS011;56108;48.730;9.304;2022-10-13T07:11:06;25.98;;;20.65;;
966;SDS011;56108;48.730;9.304;2022-10-13T07:13:24;28.73;;;22.08;;
966;SDS011;56108;48.730;9.304;2022-10-13T07:15:36;29.58;;;21.02;;
966;SDS011;56108;48.730;9.304;2022-10-13T07:17:45;27.55;;;22.33;;
966;SDS011;56108;48.730;9.304;2022-10-13T07:19:53;30.52;;;22.25;;
966;SDS011;56108;48.730;9.304;2022-10-13T07:22:08;28.58;;;23.10;;
966;SDS011;56108;48.730;9.304;2022-10-13T07:24:19;29.27;;;22.42;;
966;SDS011;56108;48.730;9.304;2022-10-13T07:26:27;30.80;;;22.10;;
966;SDS011;56108;48.730;9.304;2022-10-13T07:28:36;27.00;;;19.88;;
966;SDS011;56108;48.730;9.304;2022-10-13T07:30:45;27.77;;;21.65;;
966;SDS011;56108;48.730;9.304;2022-10-13T07:32:53;24.83;;;19.98;;
966;SDS011;56108;48.730;9.304;2022-10-13T07:35:02;25.73;;;20.80;;
966;SDS011;56108;48.730;9.304;2022-10-13T07:37:13;28.05;;;21.85;;
966;SDS011;56108;48.730;9.304;2022-10-13T07:39:23;26.58;;;22.17;;
966;SDS011;56108;48.730;9.304;2022-10-13T07:41:32;25.23;;;20.85;;
966;SDS011;56108;48.730;9.304;2022-10-13T07:43:40;26.42;;;20.80;;
966;SDS011;56108;48.730;9.304;2022-10-13T07:45:48;25.67;;;20.67;;
966;SDS011;56108;48.730;9.304;2022-10-13T07:47:57;25.33;;;19.63;;
966;SDS011;56108;48.730;9.304;2022-10-13T07:50:06;25.13;;;20.58;;
966;SDS011;56108;48.730;9.304;2022-10-13T07:52:18;21.92;;;18.83;;
966;SDS011;56108;48.730;9.304;2022-10-13T07:54:27;23.20;;;19.70;;
966;SDS011;56108;48.730;9.304;2022-10-13T07:56:36;26.60;;;19.55;;
966;SDS011;56108;48.730;9.304;2022-10-13T07:58:46;21.83;;;19.55;;
966;SDS011;56108;48.730;9.304;2022-10-13T08:00:57;20.88;;;18.33;;
966;SDS011;56108;48.730;9.304;2022-10-13T08:03:07;19.90;;;17.60;;
966;SDS011;56108;48.730;9.304;2022-10-13T08:05:16;22.05;;;19.00;;
966;SDS011;56108;48.730;9.304;2022-10-13T08:07:29;23.13;;;18.55;;
966;SDS011;56108;48.730;9.304;2022-10-13T08:09:37;18.25;;;16.33;;
966;SDS011;56108;48.730;9.304;2022-10-13T08:11:45;20.13;;;17.50;;
966;SDS011;56108;48.730;9.304;2022-10-13T08:13:53;20.83;;;17.33;;
966;SDS011;56108;48.730;9.304;2022-10-13T08:16:04;22.17;;;18.05;;
966;SDS011;56108;48.730;9.304;2022-10-13T08:18:13;19.70;;;17.60;;
966;SDS011;56108;48.730;9.304;2022-10-13T08:20:21;18.05;;;16.15;;
966;SDS011;56108;48.730;9.304;2022-10-13T08:22:47;19.48;;;17.38;;
966;SDS011;56108;48.730;9.304;2022-10-13T08:24:55;16.52;;;14.85;;
966;SDS011;56108;48.730;9.304;2022-10-13T08:27:09;19.02;;;16.77;;
966;SDS011;56108;48.730;9.304;2022-10-13T08:29:19;16.63;;;14.35;;
966;SDS011;56108;48.730;9.304;2022-10-13T08:31:28;16.42;;;13.63;;
966;SDS011;56108;48.730;9.304;2022-10-13T08:33:37;20.83;;;13.85;;
966;SDS011;56108;48.730;9.304;2022-10-13T08:35:46;14.85;;;13.45;;
966;SDS011;56108;48.730;9.304;2022-10-13T08:37:58;18.27;;;13.30;;
966;SDS011;56108;48.730;9.304;2022-10-13T08:40:09;17.48;;;13.45;;
966;SDS011;56108;48.730;9.304;2022-10-13T08:42:21;15.00;;;13.40;;
966;SDS011;56108;48.730;9.304;2022-10-13T08:44:32;18.00;;;12.77;;
966;SDS011;56108;48.730;9.304;2022-10-13T08:47:05;15.07;;;12.30;;
966;SDS011;56108;48.730;9.304;2022-10-13T08:49:18;12.90;;;11.57;;
966;SDS011;56108;48.730;9.304;2022-10-13T08:51:27;14.85;;;13.00;;
966;SDS011;56108;48.730;9.304;2022-10-13T08:53:41;16.60;;;13.98;;
966;SDS011;56108;48.730;9.304;2022-10-13T08:55:51;13.98;;;12.52;;
966;SDS011;56108;48.730;9.304;2022-10-13T08:58:05;16.17;;;13.30;;
966;SDS011;56108;48.730;9.304;2022-10-13T09:00:20;14.43;;;12.90;;
966;SDS011;56108;48.730;9.304;2022-10-13T09:02:29;16.70;;;12.95;;
966;SDS011;56108;48.730;9.304;2022-10-13T09:04:38;15.00;;;12.65;;
966;SDS011;56108;48.730;9.304;2022-10-13T09:06:51;13.77;;;11.40;;
966;SDS011;56108;48.730;9.304;2022-10-13T09:09:04;14.43;;;12.02;;
966;SDS011;56108;48.730;9.304;2022-10-13T09:11:14;13.35;;;11.93;;
966;SDS011;56108;48.730;9.304;2022-10-13T09:13:23;12.73;;;11.32;;
966;SDS011;56108;48.730;9.304;2022-10-13T09:15:41;14.30;;;11.57;;
966;SDS011;56108;48.730;9.304;2022-10-13T09:18:06;17.35;;;12.60;;
966;SDS011;56108;48.730;9.304;2022-10-13T09:20:17;13.90;;;11.48;;
966;SDS011;56108;48.730;9.304;2022-10-13T09:22:29;16.92;;;12.32;;
966;SDS011;56108;48.730;9.304;2022-10-13T09:24:41;12.55;;;11.32;;
966;SDS011;56108;48.730;9.304;2022-10-13T09:27:00;14.35;;;11.75;;
966;SDS011;56108;48.730;9.304;2022-10-13T09:29:16;11.25;;;10.15;;
966;SDS011;56108;48.730;9.304;2022-10-13T09:31:28;11.82;;;10.63;;
966;SDS011;56108;48.730;9.304;2022-10-13T09:33:37;11.30;;;10.15;;
966;SDS011;56108;48.730;9.304;2022-10-13T09:35:46;12.60;;;11.30;;
966;SDS011;56108;48.730;9.304;2022-10-13T09:38:02;12.90;;;11.50;;
966;SDS011;56108;48.730;9.304;2022-10-13T09:40:18;12.35;;;11.10;;
966;SDS011;56108;48.730;9.304;2022-10-13T09:42:28;11.80;;;10.50;;
966;SDS011;56108;48.730;9.304;2022-10-13T09:44:38;11.88;;;10.65;;
966;SDS011;56108;48.730;9.304;2022-10-13T09:46:47;10.57;;;9.65;;
966;SDS011;56108;48.730;9.304;2022-10-13T09:49:02;12.90;;;11.50;;
966;SDS011;56108;48.730;9.304;2022-10-13T09:51:25;17.02;;;13.13;;
966;SDS011;56108;48.730;9.304;2022-10-13T09:53:47;13.07;;;11.32;;
966;SDS011;56108;48.730;9.304;2022-10-13T09:56:14;13.05;;;10.93;;
966;SDS011;56108;48.730;9.304;2022-10-13T09:58:26;12.43;;;11.10;;
966;SDS011;56108;48.730;9.304;2022-10-13T10:00:37;12.32;;;10.57;;
966;SDS011;56108;48.730;9.304;2022-10-13T10:02:47;12.35;;;10.93;;
966;SDS011;56108;48.730;9.304;2022-10-13T10:05:04;12.00;;;10.80;;
966;SDS011;56108;48.730;9.304;2022-10-13T10:07:25;13.05;;;11.75;;
966;SDS011;56108;48.730;9.304;2022-10-13T10:09:37;12.52;;;11.20;;
966;SDS011;56108;48.730;9.304;2022-10-13T10:11:55;12.82;;;10.65;;
966;SDS011;56108;48.730;9.304;2022-10-13T10:14:13;12.80;;;11.57;;
966;SDS011;56108;48.730;9.304;2022-10-13T10:16:28;13.32;;;11.35;;
966;SDS011;56108;48.730;9.304;2022-10-13T10:18:41;12.57;;;10.68;;
966;SDS011;56108;48.730;9.304;2022-10-13T10:21:04;16.83;;;11.00;;
966;SDS011;56108;48.730;9.304;2022-10-13T10:23:20;10.95;;;9.82;;
966;SDS011;56108;48.730;9.304;2022-10-13T10:25:37;13.45;;;10.02;;
966;SDS011;56108;48.730;9.304;2022-10-13T10:27:54;11.18;;;10.05;;
966;SDS011;56108;48.730;9.304;2022-10-13T10:30:21;10.20;;;9.27;;
966;SDS011;56108;48.730;9.304;2022-10-13T10:32:32;11.20;;;9.15;;
966;SDS011;56108;48.730;9.304;2022-10-13T10:34:49;9.93;;;8.93;;
966;SDS011;56108;48.730;9.304;2022-10-13T10:37:12;11.55;;;9.73;;
966;SDS011;56108;48.730;9.304;2022-10-13T10:39:29;12.50;;;8.32;;
966;SDS011;56108;48.730;9.304;2022-10-13T10:41:44;12.55;;;9.50;;
966;SDS011;56108;48.730;9.304;2022-10-13T10:44:01;10.93;;;8.77;;
966;SDS011;56108;48.730;9.304;2022-10-13T10:46:16;13.23;;;9.00;;
966;SDS011;56108;48.730;9.304;2022-10-13T10:48:30;9.43;;;8.52;;
966;SDS011;56108;48.730;9.304;2022-10-13T10:50:41;10.38;;;9.40;;
966;SDS011;56108;48.730;9.304;2022-10-13T10:52:52;10.52;;;8.38;;
966;SDS011;56108;48.730;9.304;2022-10-13T10:55:08;11.18;;;9.30;;
966;SDS011;56108;48.730;9.304;2022-10-13T10:57:25;10.13;;;9.13;;
966;SDS011;56108;48.730;9.304;2022-10-13T10:59:45;9.35;;;8.45;;
966;SDS011;56108;48.730;9.304;2022-10-13T11:02:05;9.52;;;8.50;;
966;SDS011;56108;48.730;9.304;2022-10-13T11:04:30;9.15;;;7.60;;
966;SDS011;56108;48.730;9.304;2022-10-13T11:06:43;9.30;;;8.30;;
966;SDS011;56108;48.730;9.304;2022-10-13T11:08:51;9.75;;;8.32;;
966;SDS011;56108;48.730;9.304;2022-10-13T11:13:51;10.00;;;8.52;;
966;SDS011;56108;48.730;9.304;2022-10-13T11:16:09;11.38;;;8.73;;
966;SDS011;56108;48.730;9.304;2022-10-13T11:21:09;10.05;;;8.60;;
966;SDS011;56108;48.730;9.304;2022-10-13T11:23:29;9.95;;;8.90;;
966;SDS011;56108;48.730;9.304;2022-10-13T11:25:41;11.80;;;9.05;;
966;SDS011;56108;48.730;9.304;2022-10-13T11:27:50;9.30;;;8.40;;
966;SDS011;56108;48.730;9.304;2022-10-13T11:29:59;9.18;;;8.38;;
966;SDS011;56108;48.730;9.304;2022-10-13T11:32:28;8.80;;;7.97;;
966;SDS011;56108;48.730;9.304;2022-10-13T11:34:59;8.75;;;7.85;;
966;SDS011;56108;48.730;9.304;2022-10-13T11:37:10;8.48;;;7.68;;
966;SDS011;56108;48.730;9.304;2022-10-13T11:42:12;10.27;;;8.40;;
966;SDS011;56108;48.730;9.304;2022-10-13T11:44:40;10.27;;;9.27;;
966;SDS011;56108;48.730;9.304;2022-10-13T11:46:59;9.85;;;8.25;;
966;SDS011;56108;48.730;9.304;2022-10-13T11:51:58;10.07;;;9.07;;
966;SDS011;56108;48.730;9.304;2022-10-13T11:54:20;9.35;;;8.45;;
966;SDS011;56108;48.730;9.304;2022-10-13T11:56:34;10.02;;;8.50;;
966;SDS011;56108;48.730;9.304;2022-10-13T11:58:52;11.57;;;7.97;;
966;SDS011;56108;48.730;9.304;2022-10-13T12:01:04;7.68;;;6.97;;
966;SDS011;56108;48.730;9.304;2022-10-13T12:03:18;11.10;;;9.55;;
966;SDS011;56108;48.730;9.304;2022-10-13T12:05:30;9.30;;;8.40;;
966;SDS011;56108;48.730;9.304;2022-10-13T12:07:39;10.32;;;8.27;;
966;SDS011;56108;48.730;9.304;2022-10-13T12:09:49;10.50;;;8.68;;
966;SDS011;56108;48.730;9.304;2022-10-13T12:12:03;8.93;;;8.10;;
966;SDS011;56108;48.730;9.304;2022-10-13T12:14:20;8.77;;;7.70;;
966;SDS011;56108;48.730;9.304;2022-10-13T12:16:30;9.82;;;8.05;;
966;SDS011;56108;48.730;9.304;2022-10-13T12:18:39;8.95;;;7.50;;
966;SDS011;56108;48.730;9.304;2022-10-13T12:20:55;8.80;;;8.02;;
966;SDS011;56108;48.730;9.304;2022-10-13T12:23:13;10.32;;;9.15;;
966;SDS011;56108;48.730;9.304;2022-10-13T12:25:25;9.50;;;8.45;;
966;SDS011;56108;48.730;9.304;2022-10-13T12:27:40;10.13;;;8.35;;
966;SDS011;56108;48.730;9.304;2022-10-13T12:29:52;9.15;;;8.25;;
966;SDS011;56108;48.730;9.304;2022-10-13T12:32:01;10.35;;;8.20;;
966;SDS011;56108;48.730;9.304;2022-10-13T12:34:15;13.25;;;8.60;;
966;SDS011;56108;48.730;9.304;2022-10-13T12:36:29;9.88;;;8.48;;
966;SDS011;56108;48.730;9.304;2022-10-13T12:38:41;11.40;;;8.00;;
966;SDS011;56108;48.730;9.304;2022-10-13T12:40:57;9.88;;;7.13;;
966;SDS011;56108;48.730;9.304;2022-10-13T12:43:05;8.98;;;7.47;;
966;SDS011;56108;48.730;9.304;2022-10-13T12:45:14;8.55;;;7.55;;
966;SDS011;56108;48.730;9.304;2022-10-13T12:47:34;7.90;;;7.05;;
966;SDS011;56108;48.730;9.304;2022-10-13T12:49:43;10.07;;;8.13;;
966;SDS011;56108;48.730;9.304;2022-10-13T12:51:55;9.75;;;6.63;;
966;SDS011;56108;48.730;9.304;2022-10-13T12:54:16;8.55;;;7.75;;
966;SDS011;56108;48.730;9.304;2022-10-13T12:56:31;8.57;;;7.78;;
966;SDS011;56108;48.730;9.304;2022-10-13T12:58:41;9.95;;;8.85;;
966;SDS011;56108;48.730;9.304;2022-10-13T13:00:57;8.32;;;7.60;;
966;SDS011;56108;48.730;9.304;2022-10-13T13:03:18;9.65;;;7.40;;
966;SDS011;56108;48.730;9.304;2022-10-13T13:05:31;8.38;;;7.57;;
966;SDS011;56108;48.730;9.304;2022-10-13T13:07:45;12.65;;;9.43;;
966;SDS011;56108;48.730;9.304;2022-10-13T13:10:00;10.35;;;9.02;;
966;SDS011;56108;48.730;9.304;2022-10-13T13:12:25;10.55;;;8.60;;
966;SDS011;56108;48.730;9.304;2022-10-13T13:14:35;9.27;;;8.20;;
966;SDS011;56108;48.730;9.304;2022-10-13T13:16:58;9.05;;;7.90;;
966;SDS011;56108;48.730;9.304;2022-10-13T13:19:19;11.00;;;8.88;;
966;SDS011;56108;48.730;9.304;2022-10-13T13:21:29;9.18;;;8.23;;
966;SDS011;56108;48.730;9.304;2022-10-13T13:23:40;10.15;;;8.63;;
966;SDS011;56108;48.730;9.304;2022-10-13T13:26:05;10.05;;;9.25;;
966;SDS011;56108;48.730;9.304;2022-10-13T13:28:19;11.35;;;8.85;;
966;SDS011;56108;48.730;9.304;2022-10-13T13:30:28;14.70;;;9.38;;
966;SDS011;56108;48.730;9.304;2022-10-13T13:32:36;16.58;;;10.25;;
966;SDS011;56108;48.730;9.304;2022-10-13T13:34:44;11.55;;;10.40;;
966;SDS011;56108;48.730;9.304;2022-10-13T13:36:52;10.43;;;9.20;;